createdAt,value
2023-03-03T00:03:57.694Z,2.97
2023-03-03T00:13:59.271Z,2.45
2023-03-03T00:24:22.560Z,2.20
2023-03-03T00:34:28.215Z,1.77
2023-03-03T00:44:42.166Z,1.88
2023-03-03T00:54:46.363Z,1.92
2023-03-03T01:04:50.550Z,2.03
2023-03-03T01:14:53.061Z,1.58
2023-03-03T01:24:54.692Z,1.30
2023-03-03T01:34:56.304Z,1.70
2023-03-03T01:45:20.221Z,1.52
2023-03-03T01:55:23.633Z,1.40
2023-03-03T02:05:25.968Z,1.40
2023-03-03T02:15:33.484Z,1.40
2023-03-03T02:25:45.700Z,1.25
2023-03-03T02:35:49.909Z,1.33
2023-03-03T02:45:51.699Z,1.15
2023-03-03T02:55:53.288Z,1.23
2023-03-03T03:05:54.928Z,1.20
2023-03-03T03:15:58.520Z,1.20
2023-03-03T03:26:00.258Z,1.20
2023-03-03T03:36:04.674Z,0.85
2023-03-03T03:46:07.691Z,1.30
2023-03-03T03:56:09.836Z,1.27
2023-03-03T04:06:11.853Z,1.30
2023-03-03T04:16:13.567Z,1.10
2023-03-03T04:26:19.271Z,1.20
2023-03-03T04:36:22.054Z,1.30
2023-03-03T04:46:24.188Z,0.90
2023-03-03T04:56:26.818Z,0.90
2023-03-03T05:06:28.452Z,0.70
2023-03-03T05:16:30.107Z,1.05
2023-03-03T05:26:31.610Z,0.70
2023-03-03T05:36:35.453Z,0.82
2023-03-03T05:46:36.972Z,0.70
2023-03-03T05:56:38.448Z,0.80
2023-03-03T06:06:40.057Z,1.00
2023-03-03T06:16:41.659Z,0.75
2023-03-03T06:26:43.246Z,0.80
2023-03-03T06:36:44.750Z,0.50
2023-03-03T06:46:46.269Z,0.65
2023-03-03T06:56:49.784Z,0.60
2023-03-03T07:06:51.480Z,0.95
2023-03-03T07:17:01.844Z,0.75
2023-03-03T07:27:06.160Z,0.77
2023-03-03T07:37:29.333Z,0.50
2023-03-03T07:47:35.989Z,0.60
2023-03-03T07:57:39.627Z,0.50
2023-03-03T08:07:41.109Z,0.55
2023-03-03T08:17:42.948Z,0.43
2023-03-03T08:27:44.479Z,0.50
2023-03-03T08:37:45.975Z,0.47
2023-03-03T08:47:47.532Z,0.60
2023-03-03T08:57:59.206Z,0.50
2023-03-03T09:08:00.929Z,0.70
2023-03-03T09:18:08.600Z,0.50
2023-03-03T09:28:24.533Z,0.60
2023-03-03T09:38:34.009Z,0.60
2023-03-03T09:49:00.910Z,0.63
2023-03-03T09:59:09.628Z,0.47
2023-03-03T10:09:35.500Z,0.80
2023-03-03T10:19:55.969Z,1.00
2023-03-03T10:30:41.045Z,1.63
2023-03-03T10:40:52.624Z,0.95
2023-03-03T10:51:22.503Z,2.10
2023-03-03T11:01:40.736Z,2.53
2023-03-03T11:11:45.423Z,1.27
2023-03-03T11:22:08.006Z,0.97
2023-03-03T11:32:18.540Z,0.90
2023-03-03T11:42:23.835Z,1.38
2023-03-03T11:52:41.897Z,0.63
2023-03-03T12:02:56.618Z,0.90
2023-03-03T12:13:16.955Z,0.90
2023-03-03T12:23:18.381Z,1.15
2023-03-03T12:33:37.980Z,0.68
2023-03-03T12:44:05.520Z,0.60
2023-03-03T12:54:14.864Z,1.00
2023-03-03T13:04:43.508Z,1.35
2023-03-03T13:14:51.930Z,0.93
2023-03-03T13:24:59.444Z,0.63
2023-03-03T13:35:09.590Z,1.13
2023-03-03T13:45:21.260Z,0.73
2023-03-03T13:55:26.784Z,0.88
2023-03-03T14:05:41.963Z,0.32
2023-03-03T14:15:55.736Z,1.63
2023-03-03T14:26:00.973Z,1.23
2023-03-03T14:46:27.581Z,0.60
2023-03-03T14:56:39.330Z,0.95
2023-03-03T15:06:42.651Z,0.73
2023-03-03T15:16:46.946Z,0.65
2023-03-03T15:26:59.391Z,0.73
2023-03-03T15:37:31.841Z,1.20
2023-03-03T15:48:06.157Z,1.30
2023-03-03T15:58:14.648Z,2.35
2023-03-03T16:08:25.027Z,1.77
2023-03-03T16:18:38.861Z,2.58
2023-03-03T16:29:16.905Z,2.28
2023-03-03T16:39:29.826Z,2.55
2023-03-03T16:49:44.275Z,2.65
2023-03-03T17:00:00.695Z,3.38
2023-03-03T17:10:21.168Z,4.47
2023-03-03T17:20:49.961Z,3.70
2023-03-03T17:30:59.753Z,3.75
2023-03-03T17:41:16.843Z,3.25
2023-03-03T17:51:33.301Z,4.10
2023-03-03T18:01:45.904Z,3.40
2023-03-03T18:12:10.428Z,4.22
2023-03-03T18:22:20.277Z,3.40
2023-03-03T18:32:23.618Z,3.38
2023-03-03T18:42:43.030Z,5.10
2023-03-03T18:53:13.435Z,3.90
2023-03-03T19:03:25.794Z,5.15
2023-03-03T19:13:33.284Z,4.38
2023-03-03T19:23:54.419Z,5.45
2023-03-03T19:34:06.256Z,4.72
2023-03-03T19:44:21.868Z,5.05
2023-03-03T19:54:52.789Z,6.00
2023-03-03T20:05:04.941Z,5.72
2023-03-03T20:15:15.124Z,4.82
2023-03-03T20:25:46.547Z,4.13
2023-03-03T20:35:51.032Z,5.47
2023-03-03T20:46:29.936Z,5.00
2023-03-03T20:56:38.522Z,4.13
2023-03-03T21:06:40.761Z,5.75
2023-03-03T21:16:42.539Z,5.72
2023-03-03T21:26:54.482Z,5.47
2023-03-03T21:36:57.929Z,4.10
2023-03-03T21:46:59.887Z,4.32
2023-03-03T21:57:01.487Z,5.25
2023-03-03T22:07:02.952Z,2.78
2023-03-03T22:17:04.517Z,4.68
2023-03-03T22:27:07.566Z,3.65
2023-03-03T22:37:09.088Z,4.95
2023-03-03T22:47:12.897Z,4.72
2023-03-03T22:57:14.363Z,3.33
2023-03-03T23:07:15.846Z,4.10
2023-03-03T23:17:17.419Z,4.95
2023-03-03T23:27:18.912Z,3.83
2023-03-03T23:37:21.154Z,5.15
2023-03-03T23:47:22.905Z,4.93
2023-03-03T23:57:24.396Z,3.15
